Time;durP1;ratioP1;P1;durP2;ratioP2;P2;SDS_P1;SDS_P2;PMS_P1;PMS_P2;Temp;Humidity;BMP_temperature;BMP_pressure;BME280_temperature;BME280_humidity;BME280_pressure;Samples;Min_cycle;Max_cycle;Signal;HPM_P1;HPM_P2
2022/10/13 00:00:18;;;;;;;8.68;4.20;;;;;;;19.59;45.46;101760.19;5076373;28;20029;-60
2022/10/13 00:02:44;;;;;;;8.13;3.75;;;;;;;19.60;45.18;101764.56;5075720;28;20432;-60
2022/10/13 00:05:09;;;;;;;8.75;4.07;;;;;;;19.63;45.20;101759.66;5075673;28;20365;-60
2022/10/13 00:07:35;;;;;;;10.55;4.47;;;;;;;19.65;45.63;101754.09;5057781;28;20103;-60
2022/10/13 00:10:00;;;;;;;7.97;4.15;;;;;;;19.70;45.42;101754.44;5057402;28;20028;-60
2022/10/13 00:12:26;;;;;;;10.25;4.22;;;;;;;19.69;45.01;101755.44;5075468;28;20107;-60
2022/10/13 00:14:51;;;;;;;8.90;3.78;;;;;;;19.73;45.17;101754.97;5040941;28;20035;-60
2022/10/13 00:17:16;;;;;;;10.38;3.58;;;;;;;19.77;44.93;101747.31;5075564;28;20076;-60
2022/10/13 00:19:42;;;;;;;14.38;4.25;;;;;;;19.80;45.00;101748.84;5057778;28;20567;-60
2022/10/13 00:22:07;;;;;;;9.82;3.45;;;;;;;19.82;45.28;101734.06;5075495;28;20027;-60
2022/10/13 00:24:32;;;;;;;14.90;4.22;;;;;;;19.84;45.44;101737.47;5075536;28;20082;-60
2022/10/13 00:26:58;;;;;;;12.45;3.05;;;;;;;19.84;45.04;101734.75;5057932;28;20035;-60
2022/10/13 00:29:23;;;;;;;7.97;3.85;;;;;;;19.87;45.19;101745.31;5075918;28;20416;-60
2022/10/13 00:31:49;;;;;;;8.52;3.58;;;;;;;19.88;45.26;101736.09;5037638;28;20116;-60
2022/10/13 00:34:14;;;;;;;8.20;3.25;;;;;;;19.87;45.66;101729.00;5038034;28;20044;-60
2022/10/13 00:36:40;;;;;;;7.72;3.65;;;;;;;19.89;45.39;101732.38;5021506;28;20036;-60
2022/10/13 00:39:05;;;;;;;8.30;3.30;;;;;;;19.88;45.34;101730.66;5055785;28;20036;-60
2022/10/13 00:41:30;;;;;;;9.27;3.45;;;;;;;19.90;45.43;101723.22;5037274;28;20025;-60
2022/10/13 00:44:00;;;;;;;10.50;3.67;;;;;;;19.91;45.39;101727.63;5055323;28;20478;-60
2022/10/13 00:46:28;;;;;;;11.48;4.25;;;;;;;19.93;44.83;101733.75;5055709;28;20028;-60
2022/10/13 00:48:54;;;;;;;5.18;3.00;;;;;;;19.94;45.57;101719.13;5055551;28;20032;-60
2022/10/13 00:51:25;;;;;;;7.65;3.00;;;;;;;19.96;45.51;101730.69;5037306;28;20379;-60
2022/10/13 00:53:51;;;;;;;9.18;3.22;;;;;;;19.97;44.90;101723.38;5055394;28;20055;-60
2022/10/13 00:56:18;;;;;;;10.30;4.57;;;;;;;19.97;45.53;101713.34;5037345;28;20048;-60
2022/10/13 00:58:44;;;;;;;12.52;3.22;;;;;;;19.97;45.53;101707.06;5040598;28;20538;-60
2022/10/13 01:01:10;;;;;;;14.20;4.45;;;;;;;19.99;45.07;101711.31;5042190;28;20057;-60
2022/10/13 01:03:36;;;;;;;9.52;3.78;;;;;;;20.00;45.33;101718.47;5059593;28;20025;-60
2022/10/13 01:06:02;;;;;;;12.63;3.97;;;;;;;20.03;45.18;101709.09;5059177;28;20060;-60
2022/10/13 01:08:28;;;;;;;9.30;3.83;;;;;;;20.05;45.71;101713.34;5041321;28;20024;-60
2022/10/13 01:11:16;;;;;;;9.45;3.47;;;;;;;20.07;45.43;101711.31;5041530;28;20509;-60
2022/10/13 01:13:48;;;;;;;11.05;3.03;;;;;;;20.07;45.04;101708.59;5058825;28;20112;-60
2022/10/13 01:16:25;;;;;;;11.93;3.22;;;;;;;20.08;45.09;101704.00;5058534;28;20418;-60
2022/10/13 01:19:11;;;;;;;6.97;3.22;;;;;;;20.08;45.34;101699.41;5059251;28;20025;-60
2022/10/13 01:21:46;;;;;;;8.18;3.17;;;;;;;20.08;45.33;101699.41;5058757;28;20416;-60
2022/10/13 01:24:27;;;;;;;10.60;4.30;;;;;;;20.10;45.30;101697.38;5041282;28;20498;-60
2022/10/13 01:27:07;;;;;;;15.07;3.60;;;;;;;20.11;45.29;101693.63;5041544;28;20029;-60
2022/10/13 01:29:48;;;;;;;13.30;4.25;;;;;;;20.12;45.72;101695.34;5041251;28;20468;-60
2022/10/13 01:32:13;;;;;;;11.98;4.03;;;;;;;20.11;45.62;101693.63;5068410;28;20078;-60
2022/10/13 01:34:52;;;;;;;6.75;3.50;;;;;;;20.10;45.59;101694.66;5060727;28;20028;-60
2022/10/13 01:37:28;;;;;;;6.93;3.05;;;;;;;20.09;45.27;101684.81;5079418;28;20451;-60
2022/10/13 01:40:08;;;;;;;8.98;3.45;;;;;;;20.11;45.34;101688.19;5061186;28;20021;-60
2022/10/13 01:42:44;;;;;;;8.45;2.95;;;;;;;20.12;45.05;101683.63;5078727;28;20021;-60
2022/10/13 01:45:10;;;;;;;7.47;3.83;;;;;;;20.11;44.92;101682.75;5060653;28;20028;-60
2022/10/13 01:47:37;;;;;;;10.18;3.33;;;;;;;20.09;45.44;101679.38;5061146;28;20493;-60
2022/10/13 01:50:04;;;;;;;12.60;3.72;;;;;;;20.14;45.12;101687.84;5057568;28;20045;-60
2022/10/13 01:52:33;;;;;;;7.88;3.47;;;;;;;20.09;45.30;101679.38;5056825;28;20072;-60
2022/10/13 01:55:05;;;;;;;7.80;3.65;;;;;;;20.10;45.20;101686.47;5057313;28;20024;-60
2022/10/13 01:57:42;;;;;;;12.07;3.38;;;;;;;20.10;45.83;101697.38;5059041;28;20020;-60
2022/10/13 02:00:12;;;;;;;7.88;3.55;;;;;;;20.10;45.10;101686.47;5038006;28;20036;-60
2022/10/13 02:02:56;;;;;;;7.95;3.50;;;;;;;20.09;45.27;101683.94;5037401;28;20082;-60
2022/10/13 02:05:41;;;;;;;10.77;3.88;;;;;;;20.07;45.37;101684.09;5037504;28;20048;-60
2022/10/13 02:08:14;;;;;;;9.65;3.63;;;;;;;20.09;45.60;101679.38;5038757;28;20025;-60
2022/10/13 02:11:06;;;;;;;12.55;4.00;;;;;;;20.10;45.34;101675.59;5052880;28;20501;-60
2022/10/13 02:13:33;;;;;;;6.05;3.47;;;;;;;20.10;45.45;101670.16;5037768;28;20025;-60
2022/10/13 02:15:59;;;;;;;9.23;3.20;;;;;;;20.09;44.88;101671.19;5052933;28;20498;-60
2022/10/13 02:18:29;;;;;;;9.98;4.00;;;;;;;20.10;45.31;101667.44;5036771;28;20025;-60
2022/10/13 02:20:54;;;;;;;6.57;3.80;;;;;;;20.11;45.32;101663.72;5053613;28;20108;-60
2022/10/13 02:23:20;;;;;;;5.57;3.80;;;;;;;20.11;45.49;101669.16;5056488;28;20064;-60
2022/10/13 02:25:46;;;;;;;8.35;3.63;;;;;;;20.10;45.21;101664.72;5056816;28;20165;-60
2022/10/13 02:28:12;;;;;;;11.65;3.70;;;;;;;20.11;45.33;101666.44;5057859;28;20032;-60
2022/10/13 02:30:38;;;;;;;9.30;3.60;;;;;;;20.09;45.41;101657.59;5056319;28;20028;-60
2022/10/13 02:33:03;;;;;;;7.78;3.00;;;;;;;20.08;45.32;101655.88;5056787;28;20029;-60
2022/10/13 02:35:29;;;;;;;6.55;3.55;;;;;;;20.07;45.43;101654.19;5056610;28;20036;-60
2022/10/13 02:37:55;;;;;;;6.07;3.15;;;;;;;20.06;45.66;101657.09;5055918;28;20044;-60
2022/10/13 02:40:20;;;;;;;7.20;3.42;;;;;;;20.05;45.63;101649.94;5057402;28;20036;-60
2022/10/13 02:42:45;;;;;;;11.38;3.85;;;;;;;20.06;45.54;101647.06;5057698;28;20078;-60
2022/10/13 02:45:11;;;;;;;5.80;3.10;;;;;;;20.03;45.75;101636.50;5057784;28;20034;-60
2022/10/13 02:47:36;;;;;;;12.55;4.00;;;;;;;20.07;45.14;101647.91;5057149;28;20033;-60
2022/10/13 02:50:02;;;;;;;7.43;3.08;;;;;;;20.06;45.54;101633.47;5067890;28;20135;-60
2022/10/13 02:52:28;;;;;;;9.85;3.80;;;;;;;20.08;45.74;101625.13;5059219;28;20063;-60
2022/10/13 02:54:53;;;;;;;8.93;4.00;;;;;;;20.08;45.16;101625.97;5077173;28;20422;-60
2022/10/13 02:57:19;;;;;;;8.10;3.58;;;;;;;20.10;45.46;101626.63;5077509;28;20028;-60
2022/10/13 02:59:44;;;;;;;7.18;3.85;;;;;;;20.11;45.00;101631.06;5077803;28;20061;-66
2022/10/13 03:02:09;;;;;;;7.10;2.72;;;;;;;20.11;45.36;101631.06;5059516;28;20043;-60
2022/10/13 03:04:35;;;;;;;6.68;3.85;;;;;;;20.12;45.42;101634.66;5077190;28;20431;-60
2022/10/13 03:07:00;;;;;;;8.60;4.18;;;;;;;20.12;45.35;101631.91;5059197;28;20040;-60
2022/10/13 03:09:26;;;;;;;13.50;3.55;;;;;;;20.13;45.11;101623.56;5077437;28;20111;-60
2022/10/13 03:11:51;;;;;;;12.98;3.42;;;;;;;20.14;45.47;101622.56;5059680;28;20050;-60
2022/10/13 03:14:17;;;;;;;6.40;3.22;;;;;;;20.16;45.00;101627.81;5059293;28;20052;-60
2022/10/13 03:16:42;;;;;;;12.20;4.45;;;;;;;20.18;45.32;101632.06;5076876;28;20078;-60
2022/10/13 03:19:08;;;;;;;11.70;4.13;;;;;;;20.19;45.14;101622.88;5062343;28;20065;-60
2022/10/13 03:21:33;;;;;;;8.68;3.00;;;;;;;20.18;45.48;101629.34;5056991;28;20024;-60
2022/10/13 03:23:58;;;;;;;5.95;3.67;;;;;;;20.17;45.36;101624.09;5039543;28;20111;-64
2022/10/13 03:26:24;;;;;;;10.90;4.30;;;;;;;20.16;45.32;101630.53;5022145;28;20078;-60
2022/10/13 03:28:50;;;;;;;7.40;4.13;;;;;;;20.12;45.44;101618.31;5057428;28;20028;-60
2022/10/13 03:31:16;;;;;;;6.03;4.32;;;;;;;20.15;45.53;101624.28;5039187;28;20363;-61
2022/10/13 03:33:42;;;;;;;11.52;4.05;;;;;;;20.11;45.68;101614.75;5038943;28;20104;-60
2022/10/13 03:36:09;;;;;;;7.80;3.83;;;;;;;20.16;45.22;101628.69;5057054;28;20442;-60
2022/10/13 03:38:34;;;;;;;7.38;3.10;;;;;;;20.15;45.25;101631.59;5057089;28;20081;-60
2022/10/13 03:41:07;;;;;;;9.65;4.07;;;;;;;20.14;45.75;101630.72;5038791;28;20085;-60
2022/10/13 03:43:32;;;;;;;;;;;;;;;20.15;45.22;101626.13;5039054;28;20171;-60
2022/10/13 03:45:59;;;;;;;12.18;3.58;;;;;;;20.14;45.69;101606.25;5056416;28;19978;-60
2022/10/13 03:48:25;;;;;;;10.27;3.60;;;;;;;20.14;45.60;101617.13;5056366;28;20025;-60
2022/10/13 03:50:51;;;;;;;7.20;2.85;;;;;;;20.11;45.34;101603.88;5038782;28;20051;-60
2022/10/13 03:53:17;;;;;;;8.85;3.28;;;;;;;20.13;45.09;101607.25;5056751;28;20029;-60
2022/10/13 03:55:49;;;;;;;11.32;3.35;;;;;;;20.15;44.98;101613.38;5021705;28;20025;-60
2022/10/13 03:58:14;;;;;;;7.60;3.65;;;;;;;20.15;45.80;101613.38;5056033;28;20021;-60
2022/10/13 04:00:40;;;;;;;9.23;3.50;;;;;;;20.15;45.65;101607.94;5038247;28;20029;-60
2022/10/13 04:03:05;;;;;;;8.88;4.03;;;;;;;20.14;45.47;101600.81;5055874;28;20104;-60
2022/10/13 04:05:33;;;;;;;6.03;3.03;;;;;;;20.13;45.77;101609.97;5038622;28;20033;-60
2022/10/13 04:07:58;;;;;;;10.43;3.00;;;;;;;20.13;45.18;101609.97;5056103;28;20079;-60
2022/10/13 04:10:23;;;;;;;9.57;3.63;;;;;;;20.16;45.30;101617.78;5038289;28;20033;-60
2022/10/13 04:12:49;;;;;;;8.48;3.50;;;;;;;20.14;45.78;101599.94;5055686;28;20111;-60
2022/10/13 04:15:14;;;;;;;14.38;3.40;;;;;;;20.16;45.91;101609.63;5055735;28;20082;-60
2022/10/13 04:17:39;;;;;;;8.77;3.22;;;;;;;20.16;45.60;101614.22;5037605;28;20425;-60
2022/10/13 04:20:05;;;;;;;6.72;3.13;;;;;;;20.16;45.45;101612.34;5037898;28;20033;-60
2022/10/13 04:22:31;;;;;;;8.68;3.38;;;;;;;20.13;45.88;101596.38;5055598;28;20017;-60
2022/10/13 04:24:56;;;;;;;7.18;3.38;;;;;;;20.20;45.24;101600.13;5056222;28;20108;-60
2022/10/13 04:27:22;;;;;;;6.45;3.70;;;;;;;20.16;45.48;101601.47;5055718;28;20029;-60
2022/10/13 04:29:48;;;;;;;7.82;3.63;;;;;;;20.16;45.53;101601.47;5056226;28;20040;-60
2022/10/13 04:32:13;;;;;;;11.02;3.47;;;;;;;20.18;45.51;101606.75;5039039;28;20029;-60
2022/10/13 04:34:38;;;;;;;5.43;3.22;;;;;;;20.14;45.48;101595.34;5042408;28;20072;-60
2022/10/13 04:37:04;;;;;;;12.13;4.25;;;;;;;20.18;45.19;101590.44;5060072;28;20402;-60
2022/10/13 04:39:29;;;;;;;13.38;4.55;;;;;;;20.19;45.56;101595.69;5042681;28;20486;-60
2022/10/13 04:41:54;;;;;;;8.43;3.65;;;;;;;20.19;45.69;101597.53;5025737;28;20025;-60
2022/10/13 04:44:20;;;;;;;16.13;3.95;;;;;;;20.17;46.01;101594.16;5060099;28;20032;-60
2022/10/13 04:46:45;;;;;;;11.50;3.92;;;;;;;20.18;45.76;101591.25;5074127;28;20028;-60
2022/10/13 04:49:11;;;;;;;13.63;5.20;;;;;;;20.19;45.64;101587.53;5065112;28;20028;-60
2022/10/13 04:51:36;;;;;;;7.95;3.75;;;;;;;20.22;45.40;101584.47;5059903;28;20033;-60
2022/10/13 04:54:04;;;;;;;9.95;4.55;;;;;;;20.21;45.85;101580.03;5041881;28;20086;-60
2022/10/13 04:56:30;;;;;;;9.68;3.80;;;;;;;20.22;45.44;101576.28;5059708;28;20044;-60
2022/10/13 04:58:55;;;;;;;13.57;3.47;;;;;;;20.27;45.37;101584.81;5062111;28;20390;-60
2022/10/13 05:01:22;;;;;;;12.90;4.18;;;;;;;20.26;45.64;101574.97;5079685;28;20074;-60
2022/10/13 05:03:53;;;;;;;9.05;3.67;;;;;;;20.30;45.48;101570.00;5079327;28;20037;-60
2022/10/13 05:06:21;;;;;;;8.85;3.92;;;;;;;20.26;46.12;101561.38;5061894;28;20035;-60
2022/10/13 05:08:47;;;;;;;11.00;3.83;;;;;;;20.30;45.02;101565.41;5079682;28;20027;-60
2022/10/13 05:11:12;;;;;;;7.10;3.50;;;;;;;20.28;45.47;101548.44;5078812;28;20024;-60
2022/10/13 05:13:38;;;;;;;12.60;4.38;;;;;;;20.28;45.48;101553.88;5061437;28;20024;-60
2022/10/13 05:16:08;;;;;;;13.30;4.05;;;;;;;20.25;45.23;101559.66;5061492;28;20054;-60
2022/10/13 05:18:34;;;;;;;12.98;3.72;;;;;;;20.26;45.36;101555.94;5079190;28;20035;-60
2022/10/13 05:21:11;;;;;;;14.77;4.43;;;;;;;20.24;45.30;101552.50;5078894;28;20381;-60
2022/10/13 05:23:37;;;;;;;11.32;4.32;;;;;;;20.25;45.38;101556.94;5078947;28;20539;-60
2022/10/13 05:26:04;;;;;;;15.18;4.22;;;;;;;20.22;45.20;101554.53;5079562;28;20020;-60
2022/10/13 05:28:29;;;;;;;10.98;4.55;;;;;;;20.24;45.33;101552.50;5078346;28;20028;-59
2022/10/13 05:30:55;;;;;;;12.75;4.03;;;;;;;20.24;45.70;101557.06;5078516;28;20538;-60
2022/10/13 05:33:20;;;;;;;12.65;4.60;;;;;;;20.23;45.60;101545.34;5079737;28;20032;-60
2022/10/13 05:35:46;;;;;;;10.63;4.72;;;;;;;20.25;45.65;101543.34;5080256;28;20056;-60
2022/10/13 05:38:11;;;;;;;12.20;4.53;;;;;;;20.24;45.60;101546.19;5080520;28;20497;-60
2022/10/13 05:40:36;;;;;;;9.48;4.60;;;;;;;20.27;45.49;101554.88;5078843;28;20087;-60
2022/10/13 05:43:02;;;;;;;9.82;5.43;;;;;;;20.21;45.38;101541.94;5060087;28;20086;-60
2022/10/13 05:45:28;;;;;;;9.95;4.65;;;;;;;20.25;46.14;101548.78;5078597;28;20072;-60
2022/10/13 05:47:54;;;;;;;10.50;4.60;;;;;;;20.21;45.77;101536.50;5060906;28;20118;-60
2022/10/13 05:50:19;;;;;;;11.27;5.00;;;;;;;20.25;45.50;101535.16;5078925;28;20048;-60
2022/10/13 05:52:45;;;;;;;9.88;5.30;;;;;;;20.29;45.73;101543.84;5060844;28;20033;-60
2022/10/13 05:55:12;;;;;;;13.85;5.03;;;;;;;20.29;45.51;101539.25;5061284;28;20103;-61
2022/10/13 05:57:47;;;;;;;14.85;5.43;;;;;;;20.29;45.94;101533.81;5078963;28;20028;-60
2022/10/13 06:00:15;;;;;;;12.85;5.03;;;;;;;20.30;45.46;101532.75;5078990;28;20469;-60
2022/10/13 06:02:43;;;;;;;17.45;5.50;;;;;;;20.31;45.51;101539.91;5060824;28;20025;-62
2022/10/13 06:05:14;;;;;;;14.82;5.15;;;;;;;20.31;45.72;101536.34;5075679;28;20428;-63
2022/10/13 06:07:39;;;;;;;9.05;4.72;;;;;;;20.29;46.17;101536.53;5075847;28;20390;-63
2022/10/13 06:10:05;;;;;;;10.18;4.03;;;;;;;20.31;45.31;101542.63;5057785;28;20025;-64
2022/10/13 06:12:30;;;;;;;12.10;4.40;;;;;;;20.35;45.82;101539.56;5075404;28;20017;-63
2022/10/13 06:14:56;;;;;;;20.10;4.85;;;;;;;20.37;45.83;101535.66;5057619;28;20040;-63
2022/10/13 06:17:21;;;;;;;14.32;4.85;;;;;;;20.39;45.49;101541.75;5075413;28;20039;-63
2022/10/13 06:19:46;;;;;;;10.18;4.63;;;;;;;20.42;45.66;101532.38;5075267;28;20141;-63
2022/10/13 06:22:12;;;;;;;9.63;4.40;;;;;;;20.42;45.36;101525.06;5075206;28;20082;-63
2022/10/13 06:24:37;;;;;;;10.88;4.82;;;;;;;20.46;45.59;101531.03;5075175;28;20107;-63
2022/10/13 06:27:03;;;;;;;13.98;5.10;;;;;;;20.50;45.49;101524.19;5072029;28;20028;-63
2022/10/13 06:29:28;;;;;;;12.52;4.95;;;;;;;20.52;46.06;101516.72;5055158;28;20071;-63
2022/10/13 06:31:54;;;;;;;10.02;4.07;;;;;;;20.56;45.62;101523.47;5055201;28;20060;-64
2022/10/13 06:34:19;;;;;;;16.75;4.88;;;;;;;20.57;45.57;101527.91;5020690;28;20383;-63
2022/10/13 06:36:44;;;;;;;10.80;4.40;;;;;;;20.57;45.83;101526.03;5054953;28;20024;-63
2022/10/13 06:39:10;;;;;;;10.90;4.95;;;;;;;20.58;45.76;101521.41;5037117;28;20037;-63
2022/10/13 06:41:35;;;;;;;11.85;5.18;;;;;;;20.54;46.02;101507.34;5054808;28;20108;-63
2022/10/13 06:44:00;;;;;;;14.02;5.43;;;;;;;20.54;45.46;101509.22;5054922;28;20458;-63
2022/10/13 06:46:26;;;;;;;15.82;4.93;;;;;;;20.57;45.65;101525.19;5054680;28;20445;-63
2022/10/13 06:48:51;;;;;;;11.70;5.40;;;;;;;20.61;45.57;101521.06;5054961;28;20052;-63
2022/10/13 06:51:17;;;;;;;10.48;5.22;;;;;;;20.62;45.67;101518.19;5054400;28;20044;-63
2022/10/13 06:53:42;;;;;;;12.85;4.93;;;;;;;20.59;44.97;101517.69;5054538;28;20411;-63
2022/10/13 06:56:08;;;;;;;13.00;4.70;;;;;;;20.64;45.00;101518.00;5036111;28;20033;-63
2022/10/13 06:58:35;;;;;;;13.75;5.03;;;;;;;20.67;45.89;101521.22;5036718;28;20045;-63
2022/10/13 07:01:00;;;;;;;7.78;4.35;;;;;;;20.65;45.36;101525.16;5054402;28;20028;-63
2022/10/13 07:03:25;;;;;;;12.70;4.00;;;;;;;20.71;44.88;101535.34;5054410;28;20390;-63
2022/10/13 07:05:51;;;;;;;8.65;4.00;;;;;;;20.75;45.54;101536.66;5054402;28;20025;-68
2022/10/13 07:08:16;;;;;;;9.05;3.90;;;;;;;20.79;45.00;101535.28;5054338;28;20466;-66
2022/10/13 07:10:42;;;;;;;5.72;3.28;;;;;;;20.80;45.02;101532.38;5054330;28;20035;-63
2022/10/13 07:13:07;;;;;;;21.52;5.22;;;;;;;20.88;45.41;101535.03;5054268;28;20086;-63
2022/10/13 07:15:36;;;;;;;10.45;4.57;;;;;;;20.95;45.26;101548.81;5054084;28;20429;-63
2022/10/13 07:18:01;;;;;;;7.38;3.97;;;;;;;20.97;45.21;101533.13;5054084;28;20032;-64
2022/10/13 07:20:26;;;;;;;12.30;4.15;;;;;;;20.98;44.77;101545.72;5054192;28;20029;-63
2022/10/13 07:22:52;;;;;;;9.95;4.53;;;;;;;20.97;44.96;101543.16;5054181;28;20060;-63
2022/10/13 07:25:18;;;;;;;12.23;4.65;;;;;;;20.97;45.25;101548.63;5054318;28;20029;-64
2022/10/13 07:27:43;;;;;;;9.93;4.32;;;;;;;20.96;45.67;101536.03;5053973;28;20044;-63
2022/10/13 07:30:09;;;;;;;19.48;5.18;;;;;;;20.90;45.25;101546.63;5054196;28;20125;-63
2022/10/13 07:32:41;;;;;;;13.35;3.92;;;;;;;20.95;45.06;101551.53;5054181;28;20045;-63
2022/10/13 07:35:08;;;;;;;14.07;4.78;;;;;;;20.92;45.16;101536.41;5047288;28;20028;-63
2022/10/13 07:37:34;;;;;;;8.23;4.35;;;;;;;20.93;45.79;101542.69;5073945;28;20032;-62
2022/10/13 07:39:59;;;;;;;12.23;4.10;;;;;;;20.92;45.30;101552.75;5056022;28;20025;-63
2022/10/13 07:42:25;;;;;;;10.45;4.47;;;;;;;20.93;45.47;101548.16;5073920;28;20039;-64
2022/10/13 07:44:51;;;;;;;6.70;3.92;;;;;;;20.90;46.08;101537.63;5072330;28;20506;-63
2022/10/13 07:47:16;;;;;;;14.60;4.93;;;;;;;20.91;45.68;101533.84;5073673;28;20032;-63
2022/10/13 07:49:41;;;;;;;14.55;5.00;;;;;;;20.95;45.09;101531.63;5073381;28;20057;-63
2022/10/13 07:52:07;;;;;;;8.45;4.32;;;;;;;21.00;45.04;101531.91;5073433;28;20092;-63
2022/10/13 07:54:32;;;;;;;10.70;4.70;;;;;;;21.08;44.90;101538.19;5073550;28;20405;-63
2022/10/13 07:56:58;;;;;;;11.27;4.65;;;;;;;21.15;45.01;101539.19;5073568;28;20028;-63
2022/10/13 07:59:23;;;;;;;14.13;4.93;;;;;;;21.20;45.51;101534.03;5073384;28;20150;-63
2022/10/13 08:01:48;;;;;;;15.32;5.22;;;;;;;21.28;44.47;101530.41;5073393;28;20028;-63
2022/10/13 08:04:14;;;;;;;15.27;4.50;;;;;;;21.34;44.91;101525.09;5055418;28;20126;-63
2022/10/13 08:06:40;;;;;;;10.80;4.28;;;;;;;21.39;45.58;101524.53;5055449;28;20460;-63
2022/10/13 08:09:06;;;;;;;14.88;5.43;;;;;;;21.41;45.58;101519.75;5073266;28;20025;-63
2022/10/13 08:11:31;;;;;;;14.60;5.10;;;;;;;21.52;45.40;101529.38;5073131;28;20516;-64
2022/10/13 08:13:59;;;;;;;14.80;4.03;;;;;;;21.60;44.90;101530.16;5073549;28;20055;-65
2022/10/13 08:16:26;;;;;;;11.35;4.80;;;;;;;21.68;44.67;101527.34;5073124;28;20116;-63
2022/10/13 08:18:51;;;;;;;16.52;4.82;;;;;;;21.73;44.75;101529.50;5063836;28;20128;-63
2022/10/13 08:21:18;;;;;;;17.13;4.20;;;;;;;21.77;44.52;101523.53;5053095;28;20100;-63
2022/10/13 08:23:44;;;;;;;17.27;5.30;;;;;;;21.77;45.08;101525.41;5053102;28;20478;-63
2022/10/13 08:26:15;;;;;;;10.02;4.18;;;;;;;21.83;44.43;101524.66;5052987;28;20029;-63
2022/10/13 08:28:41;;;;;;;10.45;4.03;;;;;;;21.86;44.24;101519.66;5035257;28;20053;-63
2022/10/13 08:31:07;;;;;;;10.82;4.50;;;;;;;21.84;44.89;101524.47;5035133;28;20162;-63
2022/10/13 08:33:32;;;;;;;11.15;4.97;;;;;;;21.84;44.18;101507.25;5052868;28;20033;-63
2022/10/13 08:35:57;;;;;;;9.75;5.35;;;;;;;21.88;44.58;101514.06;5053002;28;20508;-63
2022/10/13 08:38:23;;;;;;;9.38;4.00;;;;;;;21.86;44.77;101507.94;5053026;28;20029;-64
2022/10/13 08:40:49;;;;;;;8.57;3.50;;;;;;;21.86;44.66;101514.22;5035105;28;20490;-64
2022/10/13 08:43:17;;;;;;;12.35;4.22;;;;;;;21.89;44.46;101518.47;5035087;28;20025;-63
2022/10/13 08:45:43;;;;;;;9.20;4.05;;;;;;;21.90;44.74;101522.91;5052794;28;20032;-63
2022/10/13 08:48:16;;;;;;;9.07;4.10;;;;;;;21.93;44.05;101517.09;5052683;28;20036;-63
2022/10/13 08:50:43;;;;;;;17.00;4.85;;;;;;;21.90;44.74;101504.66;5034907;28;20448;-63
2022/10/13 08:53:27;;;;;;;12.52;4.00;;;;;;;21.90;44.82;101510.13;5035089;28;20040;-63
2022/10/13 08:56:04;;;;;;;8.65;3.33;;;;;;;21.83;44.53;101511.84;5052860;28;20025;-63
2022/10/13 08:58:31;;;;;;;9.15;3.78;;;;;;;21.84;44.93;101509.97;5034929;28;20039;-63
2022/10/13 09:01:17;;;;;;;14.40;3.70;;;;;;;21.84;44.95;101504.53;5035002;28;20516;-64
2022/10/13 09:04:29;;;;;;;10.70;3.95;;;;;;;21.87;44.51;101515.94;5052651;28;20029;-64
2022/10/13 09:07:16;;;;;;;12.80;4.15;;;;;;;21.89;45.17;101513.03;5008204;28;20029;-63
2022/10/13 09:09:42;;;;;;;13.35;4.28;;;;;;;21.89;44.65;101513.88;5052669;28;20024;-64
2022/10/13 09:12:10;;;;;;;15.50;4.20;;;;;;;21.93;44.09;101511.63;5052792;28;20470;-64
2022/10/13 09:14:37;;;;;;;12.90;4.32;;;;;;;21.97;44.43;101516.50;5034902;28;20441;-63
2022/10/13 09:17:13;;;;;;;10.88;3.72;;;;;;;22.04;44.00;101508.44;5034914;28;20112;-63
2022/10/13 09:19:39;;;;;;;11.75;3.92;;;;;;;22.07;43.97;101516.25;5055091;28;20104;-63
2022/10/13 09:22:22;;;;;;;16.27;3.85;;;;;;;22.10;44.90;101515.88;5056550;28;20043;-63
2022/10/13 09:25:03;;;;;;;7.72;3.38;;;;;;;22.14;43.86;101510.91;5056378;28;20123;-63
2022/10/13 09:27:54;;;;;;;12.70;4.38;;;;;;;22.18;43.98;101513.06;5056445;28;20053;-63
2022/10/13 09:30:38;;;;;;;10.73;4.35;;;;;;;22.22;44.61;101514.34;5056442;28;20032;-63
2022/10/13 09:33:03;;;;;;;12.43;3.83;;;;;;;22.23;43.96;101505.16;5038413;28;20074;-63
2022/10/13 09:35:28;;;;;;;14.95;5.68;;;;;;;22.25;44.67;101500.34;5056580;28;20029;-63
2022/10/13 09:38:14;;;;;;;13.07;3.97;;;;;;;22.25;44.23;101505.78;5038303;28;20087;-63
2022/10/13 09:40:40;;;;;;;9.88;3.97;;;;;;;22.24;43.86;101501.41;5055979;28;20064;-63
2022/10/13 09:43:34;;;;;;;13.52;4.43;;;;;;;22.27;44.01;101494.69;5038115;28;20485;-63
2022/10/13 09:46:01;;;;;;;11.93;4.35;;;;;;;22.26;44.82;101493.00;5037976;28;20035;-63
2022/10/13 09:48:29;;;;;;;7.20;4.20;;;;;;;22.29;44.38;101493.47;5056073;28;20478;-63
2022/10/13 09:50:55;;;;;;;19.08;4.65;;;;;;;22.30;44.19;101491.59;5055656;28;20124;-63
2022/10/13 09:53:27;;;;;;;9.63;3.85;;;;;;;22.32;44.69;101494.97;5038272;28;20569;-63
2022/10/13 09:56:14;;;;;;;14.75;4.60;;;;;;;22.31;44.95;101494.13;5055717;28;20083;-63
2022/10/13 09:58:57;;;;;;;7.57;3.78;;;;;;;22.29;44.69;101493.47;5055626;28;20021;-64
2022/10/13 10:01:27;;;;;;;6.38;3.95;;;;;;;22.26;44.57;101493.00;5055471;28;20017;-63
2022/10/13 10:03:53;;;;;;;12.25;4.63;;;;;;;22.20;44.14;101483.69;5037794;28;20051;-64
2022/10/13 10:06:19;;;;;;;7.80;3.80;;;;;;;22.24;44.36;101490.47;5055495;28;20071;-63
2022/10/13 10:09:09;;;;;;;8.80;4.13;;;;;;;22.25;45.02;101481.22;5037666;28;20047;-64
2022/10/13 10:11:43;;;;;;;12.73;4.40;;;;;;;22.23;44.77;101482.47;5055347;28;20036;-63
2022/10/13 10:14:26;;;;;;;6.30;3.75;;;;;;;22.22;44.98;101481.59;5037823;28;20052;-63
2022/10/13 10:17:01;;;;;;;6.65;3.88;;;;;;;22.16;45.14;101482.38;5055446;28;20024;-63
2022/10/13 10:19:45;;;;;;;8.55;3.95;;;;;;;22.15;44.36;101483.41;5037488;28;20021;-62
2022/10/13 10:22:28;;;;;;;15.43;4.30;;;;;;;22.15;45.22;101477.94;5055201;28;20167;-63
2022/10/13 10:25:13;;;;;;;12.18;4.05;;;;;;;22.14;44.84;101475.44;5055237;28;20036;-63
2022/10/13 10:27:45;;;;;;;10.18;4.75;;;;;;;22.13;44.78;101476.44;5055110;28;20482;-63
2022/10/13 10:30:15;;;;;;;7.50;4.37;;;;;;;22.13;45.27;101480.03;5036143;28;20079;-63
2022/10/13 10:33:02;;;;;;;7.78;3.92;;;;;;;22.17;45.24;101483.19;5054948;28;20031;-63
2022/10/13 10:35:43;;;;;;;9.38;4.13;;;;;;;22.21;45.48;101477.19;5037426;28;20039;-63
2022/10/13 10:38:50;;;;;;;10.48;4.45;;;;;;;22.25;45.08;101478.50;5037407;28;20064;-63
2022/10/13 10:41:37;;;;;;;10.88;3.83;;;;;;;22.28;44.73;101475.38;5008245;28;20115;-63
2022/10/13 10:44:13;;;;;;;9.60;4.03;;;;;;;22.31;44.42;101475.00;5054865;28;20052;-63
2022/10/13 10:46:49;;;;;;;13.02;3.58;;;;;;;22.36;45.19;101467.09;5037040;28;20039;-63
2022/10/13 10:49:20;;;;;;;10.00;3.90;;;;;;;22.35;44.88;101454.50;5054702;28;20025;-63
2022/10/13 10:51:45;;;;;;;10.02;3.90;;;;;;;22.35;44.99;101454.50;5054552;28;20037;-63
2022/10/13 10:54:24;;;;;;;11.57;4.15;;;;;;;22.39;45.57;101454.97;5054571;28;20032;-63
2022/10/13 10:57:24;;;;;;;10.60;4.43;;;;;;;22.44;44.79;101449.78;5070199;28;20021;-63
2022/10/13 10:59:56;;;;;;;8.60;4.75;;;;;;;22.52;45.04;101455.97;5031556;28;20444;-63
2022/10/13 11:02:29;;;;;;;12.13;5.18;;;;;;;22.58;45.28;101433.34;5074426;28;20063;-63
2022/10/13 11:04:57;;;;;;;7.00;3.78;;;;;;;22.66;45.10;101434.31;5056625;28;20029;-63
2022/10/13 11:07:22;;;;;;;10.50;4.20;;;;;;;22.69;44.42;101421.13;5074407;28;20111;-63
2022/10/13 11:09:47;;;;;;;9.18;4.53;;;;;;;22.74;45.51;101424.09;5074264;28;20064;-63
2022/10/13 11:12:18;;;;;;;14.05;4.35;;;;;;;22.81;45.55;101426.91;5074111;28;20090;-63
2022/10/13 11:14:52;;;;;;;11.80;4.57;;;;;;;22.89;45.38;101424.06;5074014;28;20099;-63
2022/10/13 11:17:27;;;;;;;7.70;3.58;;;;;;;22.92;44.45;101424.50;5074139;28;20035;-63
2022/10/13 11:19:53;;;;;;;10.77;3.95;;;;;;;22.91;45.51;101416.50;5074191;28;20028;-63
2022/10/13 11:22:21;;;;;;;9.02;4.63;;;;;;;22.99;44.98;101424.56;5056183;28;20036;-63
2022/10/13 11:24:51;;;;;;;14.45;4.47;;;;;;;23.06;45.34;101420.03;5056160;28;20028;-63
2022/10/13 11:27:38;;;;;;;16.88;3.33;;;;;;;23.23;45.07;101420.59;5073877;28;20024;-63
2022/10/13 11:30:25;;;;;;;6.10;3.30;;;;;;;23.44;44.58;101413.22;5067773;28;20037;-63